This is the latest recevied weather packets stored in our database for station/object F5MAP-5. If no packets are shown the sender has not sent any weather packets the latest 10 day(s).
| Time | Temp. | Humidity | Pressure | Rain* | Wind** | Luminosity | Snow |
|---|---|---|---|---|---|---|---|
| 1787743932 | 26.67° C | 68% | 1015.5 hPa | 0 mm | - | 617 W/m² | - |
| 1787743333 | 26.11° C | 70% | 1015.6 hPa | 0 mm | - | 721 W/m² | - |
| 1787742732 | 25.56° C | 71% | 1015.7 hPa | 0 mm | - | 733 W/m² | - |
| 1787742132 | 25° C | 74% | 1015.8 hPa | 0 mm | - | 714 W/m² | - |
| 1787741532 | 24.44° C | 76% | 1015.9 hPa | 0 mm | - | 629 W/m² | - |
| 1787740932 | 23.89° C | 81% | 1016.1 hPa | 0 mm | - | 698 W/m² | - |
| 1787740332 | 22.78° C | 86% | 1016.2 hPa | 0 mm | - | 668 W/m² | - |
| 1787739732 | 22.22° C | 90% | 1016.2 hPa | 0 mm | - | 649 W/m² | - |
| 1787739132 | 21.11° C | 92% | 1016.3 hPa | 0 mm | - | 643 W/m² | - |
| 1787738532 | 20.56° C | 93% | 1016.5 hPa | 0 mm | - | 654 W/m² | - |
| 1787737932 | 20° C | 94% | 1016.6 hPa | 0 mm | - | 387 W/m² | - |
| 1787737332 | 19.44° C | 94% | 1016.7 hPa | 0 mm | - | 701 W/m² | - |
| 1787736732 | 18.89° C | 95% | 1016.8 hPa | 0 mm | - | 338 W/m² | - |
| 1787736132 | 18.89° C | 95% | 1016.9 hPa | 0 mm | - | 287 W/m² | - |
| 1787735532 | 18.33° C | 95% | 1017 hPa | 0 mm | - | 274 W/m² | - |
| 1787734932 | 18.33° C | 95% | 1017 hPa | 0 mm | - | 229 W/m² | - |
| 1787734332 | 17.78° C | 95% | 1017 hPa | 0 mm | - | 188 W/m² | - |
| 1787733732 | 17.78° C | 95% | 1016.9 hPa | 0 mm | - | 146 W/m² | - |
| 1787733132 | 17.78° C | 95% | 1016.9 hPa | 0 mm | - | 123 W/m² | - |
| 1787732532 | 17.22° C | 95% | 1016.8 hPa | 0 mm | - | 86 W/m² | - |
| 1787731932 | 17.22° C | 95% | 1016.8 hPa | 0 mm | - | 72 W/m² | - |
| 1787731332 | 17.22° C | 95% | 1016.8 hPa | 0 mm | - | 74 W/m² | - |
| 1787730733 | 17.22° C | 95% | 1016.7 hPa | 0 mm | - | 109 W/m² | - |
| 1787730132 | 17.22° C | 95% | 1016.7 hPa | 0 mm | - | 83 W/m² | - |
| 1787729532 | 16.67° C | 95% | 1016.6 hPa | 0 mm | - | 77 W/m² | - |
* Rain latest hour (hover to see other rain measurements)
** Current wind speed in m/s (hover to see current wind gust speed)